createdAt,value
2022-09-12T00:00:16.419Z,13.16
2022-09-12T00:02:42.984Z,13.13
2022-09-12T00:05:09.585Z,12.94
2022-09-12T00:07:36.177Z,13.02
2022-09-12T00:10:02.906Z,12.99
2022-09-12T00:12:29.478Z,13.11
2022-09-12T00:14:56.051Z,12.90
2022-09-12T00:17:22.637Z,12.96
2022-09-12T00:19:49.225Z,12.98
2022-09-12T00:22:15.806Z,13.01
2022-09-12T00:24:42.506Z,12.99
2022-09-12T00:27:09.186Z,13.08
2022-09-12T00:29:35.875Z,12.87
2022-09-12T00:32:02.562Z,12.65
2022-09-12T00:34:29.135Z,12.70
2022-09-12T00:36:55.718Z,12.83
2022-09-12T00:39:22.328Z,12.81
2022-09-12T00:41:48.892Z,12.66
2022-09-12T00:44:15.405Z,12.86
2022-09-12T00:46:46.073Z,12.98
2022-09-12T00:49:14.594Z,13.02
2022-09-12T00:51:48.245Z,12.97
2022-09-12T00:54:22.724Z,12.72
2022-09-12T00:56:52.131Z,12.76
2022-09-12T00:59:24.403Z,12.68
2022-09-12T01:01:52.528Z,12.77
2022-09-12T01:04:24.898Z,12.75
2022-09-12T01:06:53.044Z,12.87
2022-09-12T01:09:22.541Z,12.69
2022-09-12T01:11:51.785Z,12.62
2022-09-12T01:14:19.852Z,12.66
2022-09-12T01:16:47.980Z,12.55
2022-09-12T01:19:33.335Z,12.54
2022-09-12T01:22:18.549Z,12.62
2022-09-12T01:24:55.031Z,12.67
2022-09-12T01:27:24.657Z,12.55
2022-09-12T01:30:04.819Z,12.60
2022-09-12T01:32:47.081Z,12.59
2022-09-12T01:35:22.661Z,12.57
2022-09-12T01:38:24.404Z,12.80
2022-09-12T01:41:24.679Z,12.51
2022-09-12T01:44:32.584Z,12.61
2022-09-12T01:47:10.105Z,12.50
2022-09-12T01:49:41.500Z,12.59
2022-09-12T01:52:19.844Z,12.55
2022-09-12T01:55:11.112Z,12.47
2022-09-12T01:57:46.266Z,12.31
2022-09-12T02:00:13.527Z,12.22
2022-09-12T02:02:51.187Z,12.39
2022-09-12T02:05:25.728Z,12.21
2022-09-12T02:08:02.717Z,12.44
2022-09-12T02:10:41.837Z,12.40
2022-09-12T02:13:31.136Z,12.23
2022-09-12T02:16:20.117Z,12.20
2022-09-12T02:18:52.656Z,12.48
2022-09-12T02:21:23.187Z,12.80
2022-09-12T02:23:57.682Z,12.26
2022-09-12T02:26:36.433Z,12.25
2022-09-12T02:29:03.670Z,12.25
2022-09-12T02:31:53.696Z,12.41
2022-09-12T02:34:27.647Z,12.45
2022-09-12T02:37:13.848Z,12.26
2022-09-12T02:39:45.025Z,12.42
2022-09-12T02:42:12.752Z,12.36
2022-09-12T02:44:40.092Z,12.30
2022-09-12T02:47:27.494Z,12.32
2022-09-12T02:49:54.751Z,12.34
2022-09-12T02:52:21.722Z,12.23
2022-09-12T02:54:48.484Z,12.19
2022-09-12T02:57:23.152Z,12.36
2022-09-12T02:59:54.274Z,12.31
2022-09-12T03:02:39.469Z,12.26
2022-09-12T03:05:27.731Z,12.35
2022-09-12T03:08:09.451Z,12.28
2022-09-12T03:10:57.824Z,12.23
2022-09-12T03:13:40.607Z,12.35
2022-09-12T03:16:29.532Z,12.33
2022-09-12T03:19:17.939Z,12.28
2022-09-12T03:22:18.552Z,12.36
2022-09-12T03:24:57.004Z,12.38
2022-09-12T03:27:34.713Z,12.29
2022-09-12T03:30:04.594Z,12.45
2022-09-12T03:32:48.986Z,12.18
2022-09-12T03:35:22.261Z,12.13
2022-09-12T03:37:51.370Z,12.08
2022-09-12T03:40:18.331Z,12.13
2022-09-12T03:42:44.903Z,12.01
2022-09-12T03:45:12.133Z,12.05
2022-09-12T03:47:38.726Z,12.05
2022-09-12T03:50:06.545Z,12.12
2022-09-12T03:52:33.557Z,12.08
2022-09-12T03:55:00.171Z,12.22
2022-09-12T03:57:26.914Z,12.31
2022-09-12T03:59:53.531Z,12.00
2022-09-12T04:02:20.137Z,12.06
2022-09-12T04:04:46.847Z,12.08
2022-09-12T04:07:13.431Z,12.15
2022-09-12T04:09:40.097Z,12.25
2022-09-12T04:12:07.365Z,12.09
2022-09-12T04:14:34.154Z,11.91
2022-09-12T04:17:01.080Z,11.90
2022-09-12T04:19:28.124Z,11.87
2022-09-12T04:21:54.701Z,11.94
2022-09-12T04:24:21.318Z,12.11
2022-09-12T04:26:47.952Z,12.14
2022-09-12T04:29:15.106Z,12.10
2022-09-12T04:31:41.899Z,12.04
2022-09-12T04:34:09.011Z,12.01
2022-09-12T04:36:35.609Z,12.04
2022-09-12T04:39:03.916Z,11.95
2022-09-12T04:41:33.652Z,12.11
2022-09-12T04:44:03.360Z,12.14
2022-09-12T04:46:32.357Z,12.25
2022-09-12T04:48:59.116Z,12.29
2022-09-12T04:51:28.647Z,12.42
2022-09-12T04:53:58.840Z,12.15
2022-09-12T04:56:26.607Z,12.16
2022-09-12T04:58:53.243Z,12.18
2022-09-12T05:01:21.815Z,12.22
2022-09-12T05:03:51.196Z,12.30
2022-09-12T05:06:29.984Z,12.22
2022-09-12T05:08:57.469Z,12.22
2022-09-12T05:11:53.046Z,12.52
2022-09-12T05:14:19.217Z,12.55
2022-09-12T05:16:49.216Z,12.30
2022-09-12T05:19:16.699Z,12.61
2022-09-12T05:21:43.286Z,12.45
2022-09-12T05:24:10.981Z,12.39
2022-09-12T05:26:37.620Z,12.42
2022-09-12T05:29:05.159Z,12.44
2022-09-12T05:31:31.739Z,12.54
2022-09-12T05:33:58.335Z,12.51
2022-09-12T05:36:27.902Z,12.75
2022-09-12T05:38:54.501Z,12.62
2022-09-12T05:41:25.159Z,12.59
2022-09-12T05:43:56.826Z,12.62
2022-09-12T05:46:25.923Z,12.66
2022-09-12T05:48:56.079Z,12.88
2022-09-12T05:51:33.618Z,12.92
2022-09-12T05:54:01.532Z,13.06
2022-09-12T05:56:31.088Z,13.14
2022-09-12T05:59:03.681Z,13.36
2022-09-12T06:01:32.178Z,13.23
2022-09-12T06:04:00.807Z,13.32
2022-09-12T06:06:29.439Z,13.41
2022-09-12T06:09:01.220Z,13.61
2022-09-12T06:11:31.065Z,13.51
2022-09-12T06:13:58.476Z,13.80
2022-09-12T06:16:30.633Z,13.92
2022-09-12T06:19:00.028Z,13.61
2022-09-12T06:21:27.401Z,13.63
2022-09-12T06:23:55.519Z,13.86
2022-09-12T06:26:22.781Z,14.05
2022-09-12T06:28:50.639Z,14.07
2022-09-12T06:31:22.723Z,14.01
2022-09-12T06:33:51.805Z,14.08
2022-09-12T06:36:19.664Z,14.10
2022-09-12T06:38:46.425Z,14.27
2022-09-12T06:41:13.669Z,14.28
2022-09-12T06:43:41.780Z,14.31
2022-09-12T06:46:09.908Z,14.40
2022-09-12T06:48:41.594Z,14.75
2022-09-12T06:51:14.102Z,14.77
2022-09-12T06:53:41.827Z,14.68
2022-09-12T06:56:15.216Z,14.78
2022-09-12T06:58:43.037Z,14.85
2022-09-12T07:01:30.529Z,14.98
2022-09-12T07:03:59.619Z,15.05
2022-09-12T07:06:31.115Z,15.24
2022-09-12T07:08:59.073Z,15.33
2022-09-12T07:11:29.116Z,15.04
2022-09-12T07:13:56.494Z,14.97
2022-09-12T07:16:23.278Z,14.99
2022-09-12T07:18:58.932Z,15.16
2022-09-12T07:21:26.376Z,15.19
2022-09-12T07:23:52.985Z,15.22
2022-09-12T07:26:19.964Z,15.32
2022-09-12T07:28:51.913Z,15.43
2022-09-12T07:31:19.741Z,15.43
2022-09-12T07:33:49.007Z,15.54
2022-09-12T07:36:20.325Z,15.64
2022-09-12T07:38:47.599Z,15.68
2022-09-12T07:41:19.837Z,15.61
2022-09-12T07:43:46.945Z,15.74
2022-09-12T07:46:14.443Z,16.03
2022-09-12T07:48:41.192Z,16.09
2022-09-12T07:51:10.908Z,16.23
2022-09-12T07:53:40.312Z,16.28
2022-09-12T07:56:08.653Z,16.37
2022-09-12T07:58:36.333Z,16.43
2022-09-12T08:01:13.287Z,16.39
2022-09-12T08:03:41.585Z,16.52
2022-09-12T08:06:09.187Z,16.30
2022-09-12T08:08:37.010Z,16.71
2022-09-12T08:11:10.246Z,16.92
2022-09-12T08:13:38.860Z,17.07
2022-09-12T08:16:08.630Z,16.94
2022-09-12T08:18:36.230Z,16.96
2022-09-12T08:21:07.945Z,16.94
2022-09-12T08:23:34.687Z,16.96
2022-09-12T08:26:06.067Z,16.79
2022-09-12T08:28:34.700Z,16.90
2022-09-12T08:31:02.143Z,17.00
2022-09-12T08:33:29.450Z,17.02
2022-09-12T08:36:03.574Z,17.18
2022-09-12T08:38:30.282Z,17.57
2022-09-12T08:41:05.858Z,17.56
2022-09-12T08:43:54.505Z,17.84
2022-09-12T08:46:32.500Z,17.77
2022-09-12T08:49:01.608Z,17.54
2022-09-12T08:51:31.483Z,17.43
2022-09-12T08:54:00.402Z,17.54
2022-09-12T08:56:32.213Z,17.58
2022-09-12T08:58:58.855Z,17.59
2022-09-12T09:01:36.065Z,17.83
2022-09-12T09:04:26.933Z,17.64
2022-09-12T09:07:03.005Z,17.83
2022-09-12T09:09:41.560Z,18.11
2022-09-12T09:12:29.605Z,18.21
2022-09-12T09:14:56.121Z,18.56
2022-09-12T09:17:32.776Z,18.58
2022-09-12T09:20:27.682Z,18.60
2022-09-12T09:23:12.567Z,18.41
2022-09-12T09:26:17.441Z,18.83
2022-09-12T09:28:48.069Z,18.78
2022-09-12T09:31:16.615Z,18.71
2022-09-12T09:33:44.655Z,19.02
2022-09-12T09:36:22.738Z,18.96
2022-09-12T09:38:54.703Z,19.04
2022-09-12T09:41:30.663Z,19.42
2022-09-12T09:43:58.844Z,18.86
2022-09-12T09:46:27.183Z,18.26
2022-09-12T09:48:55.250Z,18.30
2022-09-12T09:51:28.063Z,18.80
2022-09-12T09:54:00.309Z,18.62
2022-09-12T09:56:41.660Z,18.88
2022-09-12T09:59:28.549Z,18.48
2022-09-12T10:01:59.703Z,18.50
2022-09-12T10:04:32.063Z,18.04
2022-09-12T10:07:01.111Z,18.09
2022-09-12T10:09:33.488Z,18.36
2022-09-12T10:12:20.642Z,18.31
2022-09-12T10:14:59.124Z,18.38
2022-09-12T10:17:47.016Z,18.27
2022-09-12T10:20:34.841Z,18.54
2022-09-12T10:23:16.638Z,18.35
2022-09-12T10:25:47.144Z,18.42
2022-09-12T10:28:23.963Z,18.26
2022-09-12T10:30:55.545Z,18.22
2022-09-12T10:33:25.642Z,17.96
2022-09-12T10:35:54.162Z,18.15
2022-09-12T10:38:31.520Z,18.13
2022-09-12T10:41:03.504Z,17.97
2022-09-12T10:43:33.131Z,17.87
2022-09-12T10:46:19.677Z,17.87
2022-09-12T10:49:12.324Z,18.08
2022-09-12T10:51:38.920Z,18.02
2022-09-12T10:54:10.388Z,18.00
2022-09-12T10:57:06.733Z,17.90
2022-09-12T10:59:56.892Z,18.30
2022-09-12T11:02:35.403Z,17.86
2022-09-12T11:05:10.787Z,17.96
2022-09-12T11:07:53.210Z,18.28
2022-09-12T11:10:50.351Z,18.22
2022-09-12T11:13:37.918Z,18.17
2022-09-12T11:16:13.539Z,18.43
2022-09-12T11:19:21.312Z,18.45
2022-09-12T11:22:28.642Z,18.56
2022-09-12T11:25:28.768Z,18.95
2022-09-12T11:28:04.634Z,18.61
2022-09-12T11:30:54.341Z,18.65
2022-09-12T11:33:39.666Z,18.68
2022-09-12T11:36:17.073Z,18.58
2022-09-12T11:39:20.364Z,19.00
2022-09-12T11:41:57.234Z,19.55
2022-09-12T11:44:33.351Z,20.01
2022-09-12T11:47:05.644Z,20.09
2022-09-12T11:49:38.595Z,19.84
2022-09-12T11:52:13.666Z,19.76
2022-09-12T11:54:54.004Z,19.33
2022-09-12T11:57:31.303Z,19.20
2022-09-12T12:00:15.548Z,18.62
2022-09-12T12:03:00.198Z,18.53
2022-09-12T12:05:32.726Z,18.49
2022-09-12T12:08:01.807Z,18.42
2022-09-12T12:10:44.427Z,18.25
2022-09-12T12:13:21.943Z,18.17
2022-09-12T12:15:53.291Z,18.30
2022-09-12T12:18:25.936Z,18.44
2022-09-12T12:20:54.696Z,18.15
2022-09-12T12:23:31.755Z,18.34
2022-09-12T12:26:03.447Z,18.23
2022-09-12T12:28:53.372Z,18.29
2022-09-12T12:31:20.046Z,18.47
2022-09-12T12:33:46.604Z,18.82
2022-09-12T12:36:35.992Z,19.06
2022-09-12T12:39:41.020Z,18.92
2022-09-12T12:42:07.632Z,18.89
2022-09-12T12:44:45.910Z,19.02
2022-09-12T12:47:42.391Z,19.16
2022-09-12T12:50:17.706Z,19.27
2022-09-12T12:52:51.341Z,19.48
2022-09-12T12:55:27.021Z,19.82
2022-09-12T12:57:56.410Z,19.70
2022-09-12T13:00:25.915Z,19.97
2022-09-12T13:02:58.472Z,20.11
2022-09-12T13:05:27.730Z,19.47
2022-09-12T13:08:21.981Z,19.55
2022-09-12T13:10:51.123Z,20.18
2022-09-12T13:13:28.486Z,20.76
2022-09-12T13:15:55.158Z,20.77
2022-09-12T13:18:24.815Z,20.27
2022-09-12T13:21:08.662Z,19.34
2022-09-12T13:23:35.289Z,19.24
2022-09-12T13:26:03.028Z,19.32
2022-09-12T13:28:31.467Z,19.26
2022-09-12T13:31:20.202Z,19.26
2022-09-12T13:33:53.825Z,19.22
2022-09-12T13:36:29.420Z,19.18
2022-09-12T13:39:10.176Z,19.50
2022-09-12T13:42:16.192Z,19.91
2022-09-12T13:44:52.487Z,20.00
2022-09-12T13:47:34.789Z,20.39
2022-09-12T13:50:04.534Z,20.31
2022-09-12T13:52:37.216Z,20.34
2022-09-12T13:55:12.717Z,20.39
2022-09-12T13:57:39.885Z,20.61
2022-09-12T14:00:18.853Z,20.18
2022-09-12T14:02:47.341Z,20.59
2022-09-12T14:05:20.533Z,20.21
2022-09-12T14:07:57.270Z,20.25
2022-09-12T14:10:35.493Z,20.35
2022-09-12T14:13:09.534Z,20.57
2022-09-12T14:15:37.862Z,20.44
2022-09-12T14:18:06.789Z,20.36
2022-09-12T14:20:37.950Z,20.52
2022-09-12T14:23:17.494Z,20.54
2022-09-12T14:25:45.008Z,20.79
2022-09-12T14:28:14.307Z,21.08
2022-09-12T14:30:40.928Z,20.85
2022-09-12T14:33:10.674Z,20.70
2022-09-12T14:35:52.250Z,20.71
2022-09-12T14:38:30.050Z,20.82
2022-09-12T14:41:08.052Z,20.72
2022-09-12T14:43:37.398Z,20.82
2022-09-12T14:46:14.579Z,20.99
2022-09-12T14:48:51.333Z,20.99
2022-09-12T14:51:49.437Z,20.69
2022-09-12T14:54:33.212Z,20.86
2022-09-12T14:57:05.421Z,20.92
2022-09-12T14:59:34.975Z,21.26
2022-09-12T15:02:13.665Z,21.56
2022-09-12T15:04:40.957Z,21.15
2022-09-12T15:07:34.678Z,20.73
2022-09-12T15:10:05.742Z,20.44
2022-09-12T15:12:32.455Z,20.56
2022-09-12T15:15:07.322Z,20.58
2022-09-12T15:17:34.034Z,20.50
2022-09-12T15:20:00.596Z,20.88
2022-09-12T15:22:27.252Z,20.45
2022-09-12T15:24:53.832Z,20.11
2022-09-12T15:27:20.398Z,20.29
2022-09-12T15:29:46.965Z,20.17
2022-09-12T15:32:13.663Z,20.35
2022-09-12T15:34:40.301Z,20.12
2022-09-12T15:37:13.643Z,20.67
2022-09-12T15:39:40.233Z,20.75
2022-09-12T15:42:08.115Z,20.57
2022-09-12T15:44:34.689Z,20.59
2022-09-12T15:47:01.303Z,20.46
2022-09-12T15:49:27.980Z,20.68
2022-09-12T15:51:54.568Z,20.46
2022-09-12T15:54:21.363Z,20.36
2022-09-12T15:56:47.921Z,20.10
2022-09-12T15:59:14.564Z,20.37
2022-09-12T16:01:41.482Z,20.30
2022-09-12T16:04:25.208Z,20.34
2022-09-12T16:06:52.800Z,19.92
2022-09-12T16:09:19.395Z,19.91
2022-09-12T16:11:46.653Z,19.57
2022-09-12T16:14:20.029Z,19.49
2022-09-12T16:16:52.683Z,19.54
2022-09-12T16:19:19.429Z,19.58
2022-09-12T16:21:46.727Z,19.48
2022-09-12T16:24:13.327Z,19.51
2022-09-12T16:26:39.916Z,19.14
2022-09-12T16:29:06.661Z,19.55
2022-09-12T16:31:33.330Z,19.24
2022-09-12T16:34:02.796Z,18.83
2022-09-12T16:36:29.379Z,18.73
2022-09-12T16:38:55.966Z,18.97
2022-09-12T16:41:24.687Z,18.74
2022-09-12T16:43:51.972Z,18.49
2022-09-12T16:46:21.433Z,18.55
2022-09-12T16:48:54.162Z,18.26
2022-09-12T16:51:24.099Z,18.20
2022-09-12T16:53:50.930Z,18.21
2022-09-12T16:56:17.952Z,17.89
2022-09-12T16:58:45.124Z,18.04
2022-09-12T17:01:14.685Z,18.20
2022-09-12T17:03:42.126Z,18.29
2022-09-12T17:06:12.901Z,18.11
2022-09-12T17:08:42.126Z,17.99
2022-09-12T17:11:15.665Z,17.80
2022-09-12T17:14:03.981Z,17.75
2022-09-12T17:16:34.162Z,17.86
2022-09-12T17:19:00.873Z,17.86
2022-09-12T17:21:27.617Z,17.72
2022-09-12T17:23:54.297Z,17.45
2022-09-12T17:26:20.952Z,17.69
2022-09-12T17:28:48.046Z,17.64
2022-09-12T17:31:15.422Z,17.58
2022-09-12T17:33:42.165Z,17.67
2022-09-12T17:36:14.283Z,17.54
2022-09-12T17:38:42.016Z,17.47
2022-09-12T17:41:11.750Z,17.51
2022-09-12T17:43:38.335Z,17.56
2022-09-12T17:46:05.408Z,17.72
2022-09-12T17:48:32.096Z,17.49
2022-09-12T17:50:58.756Z,17.40
2022-09-12T17:53:26.136Z,17.50
2022-09-12T17:55:54.397Z,17.44
2022-09-12T17:58:21.082Z,16.76
2022-09-12T18:00:47.667Z,16.80
2022-09-12T18:03:15.436Z,16.99
2022-09-12T18:06:00.253Z,17.02
2022-09-12T18:08:26.901Z,17.01
2022-09-12T18:10:53.482Z,16.78
2022-09-12T18:13:20.133Z,16.71
2022-09-12T18:15:46.763Z,16.51
2022-09-12T18:18:13.374Z,16.98
2022-09-12T18:20:39.937Z,17.15
2022-09-12T18:23:06.498Z,17.16
2022-09-12T18:25:33.062Z,17.19
2022-09-12T18:27:59.640Z,17.11
2022-09-12T18:30:26.269Z,17.40
2022-09-12T18:32:52.871Z,17.61
2022-09-12T18:35:19.442Z,17.66
2022-09-12T18:37:46.140Z,17.72
2022-09-12T18:40:12.788Z,17.80
2022-09-12T18:42:39.402Z,17.68
2022-09-12T18:45:06.856Z,17.49
2022-09-12T18:47:33.407Z,17.52
2022-09-12T18:49:59.985Z,17.34
2022-09-12T18:52:26.567Z,17.29
2022-09-12T18:54:53.136Z,17.27
2022-09-12T18:57:19.789Z,17.17
2022-09-12T18:59:46.339Z,17.22
2022-09-12T19:02:16.119Z,17.09
2022-09-12T19:04:42.720Z,16.95
2022-09-12T19:07:09.367Z,16.92
2022-09-12T19:09:36.177Z,16.79
2022-09-12T19:12:03.061Z,17.10
2022-09-12T19:14:29.660Z,16.69
2022-09-12T19:16:56.240Z,16.42
2022-09-12T19:19:22.847Z,16.39
2022-09-12T19:21:49.509Z,16.28
2022-09-12T19:24:16.148Z,16.25
2022-09-12T19:26:43.128Z,16.13
2022-09-12T19:29:11.057Z,15.96
2022-09-12T19:31:37.687Z,15.96
2022-09-12T19:34:06.651Z,15.98
2022-09-12T19:36:45.480Z,16.09
2022-09-12T19:39:14.557Z,15.84
2022-09-12T19:41:41.140Z,15.99
2022-09-12T19:44:07.808Z,15.95
2022-09-12T19:46:34.410Z,15.84
2022-09-12T19:49:01.023Z,15.92
2022-09-12T19:51:27.673Z,15.83
2022-09-12T19:53:54.281Z,15.77
2022-09-12T19:56:20.971Z,15.93
2022-09-12T19:58:53.504Z,15.56
2022-09-12T20:01:25.331Z,15.30
2022-09-12T20:03:52.250Z,15.17
2022-09-12T20:06:18.822Z,15.35
2022-09-12T20:08:45.638Z,15.43
2022-09-12T20:11:17.686Z,15.49
2022-09-12T20:13:45.364Z,15.40
2022-09-12T20:16:21.627Z,15.41
2022-09-12T20:19:01.771Z,15.20
2022-09-12T20:21:30.335Z,15.08
2022-09-12T20:24:07.771Z,15.14
2022-09-12T20:26:34.578Z,15.18
2022-09-12T20:29:01.517Z,15.26
2022-09-12T20:31:28.834Z,15.25
2022-09-12T20:33:55.664Z,15.12
2022-09-12T20:36:22.520Z,15.31
2022-09-12T20:38:53.782Z,15.16
2022-09-12T20:41:21.238Z,14.95
2022-09-12T20:43:55.326Z,15.01
2022-09-12T20:46:23.031Z,15.32
2022-09-12T20:48:50.600Z,14.55
2022-09-12T20:51:18.364Z,14.89
2022-09-12T20:53:44.937Z,14.72
2022-09-12T20:56:11.552Z,14.77
2022-09-12T20:58:43.058Z,14.56
2022-09-12T21:01:13.221Z,14.50
2022-09-12T21:03:41.949Z,14.48
2022-09-12T21:06:09.929Z,14.56
2022-09-12T21:08:37.408Z,14.51
2022-09-12T21:11:05.349Z,14.45
2022-09-12T21:13:32.125Z,14.51
2022-09-12T21:16:03.365Z,14.54
2022-09-12T21:18:31.174Z,14.35
2022-09-12T21:20:57.891Z,14.20
2022-09-12T21:23:26.214Z,14.14
2022-09-12T21:25:52.991Z,14.23
2022-09-12T21:28:20.887Z,14.26
2022-09-12T21:30:48.049Z,14.13
2022-09-12T21:33:14.948Z,13.95
2022-09-12T21:35:41.635Z,14.02
2022-09-12T21:38:08.222Z,13.93
2022-09-12T21:40:34.811Z,13.86
2022-09-12T21:43:01.474Z,13.91
2022-09-12T21:45:28.457Z,13.65
2022-09-12T21:47:55.172Z,13.41
2022-09-12T21:50:21.906Z,13.47
2022-09-12T21:52:48.503Z,13.58
2022-09-12T21:55:15.099Z,13.59
2022-09-12T21:57:41.686Z,13.55
2022-09-12T22:00:11.823Z,13.46
2022-09-12T22:02:38.473Z,13.48
2022-09-12T22:05:05.352Z,13.40
2022-09-12T22:07:31.930Z,13.41
2022-09-12T22:09:58.551Z,13.23
2022-09-12T22:12:25.136Z,13.34
2022-09-12T22:14:51.730Z,13.28
2022-09-12T22:17:18.375Z,13.32
2022-09-12T22:19:44.945Z,13.39
2022-09-12T22:22:11.533Z,13.24
2022-09-12T22:24:38.208Z,13.14
2022-09-12T22:27:06.312Z,13.00
2022-09-12T22:29:33.241Z,12.96
2022-09-12T22:32:00.133Z,13.03
2022-09-12T22:34:27.925Z,12.91
2022-09-12T22:36:55.079Z,12.79
2022-09-12T22:39:21.699Z,12.89
2022-09-12T22:41:48.439Z,12.90
2022-09-12T22:44:15.055Z,12.89
2022-09-12T22:46:41.699Z,12.82
2022-09-12T22:49:08.475Z,12.88
2022-09-12T22:51:35.422Z,12.89
2022-09-12T22:54:02.506Z,12.79
2022-09-12T22:56:29.079Z,12.80
2022-09-12T22:58:55.645Z,12.73
2022-09-12T23:01:22.254Z,12.66
2022-09-12T23:03:48.978Z,12.55
2022-09-12T23:06:15.793Z,12.59
2022-09-12T23:08:43.167Z,12.24
2022-09-12T23:13:49.912Z,12.49
2022-09-12T23:16:25.002Z,12.43
2022-09-12T23:18:53.020Z,12.45
2022-09-12T23:21:20.995Z,12.47
2022-09-12T23:23:47.842Z,12.46
2022-09-12T23:26:17.557Z,12.52
2022-09-12T23:28:55.083Z,12.56
2022-09-12T23:31:23.439Z,12.43
2022-09-12T23:33:52.799Z,12.30
2022-09-12T23:36:19.377Z,12.31
2022-09-12T23:38:46.741Z,12.20
2022-09-12T23:41:15.235Z,12.26
2022-09-12T23:43:42.503Z,12.32
2022-09-12T23:46:09.425Z,12.34
2022-09-12T23:48:36.102Z,12.19
2022-09-12T23:51:02.671Z,12.12
2022-09-12T23:53:29.273Z,12.19
2022-09-12T23:55:55.911Z,12.01
2022-09-12T23:58:22.508Z,12.02
